Time;durP1;ratioP1;P1;durP2;ratioP2;P2;SDS_P1;SDS_P2;PMS_P1;PMS_P2;Temp;Humidity;BMP_temperature;BMP_pressure;BME280_temperature;BME280_humidity;BME280_pressure;Samples;Min_cycle;Max_cycle;Signal;HPM_P1;HPM_P2
2024/01/17 00:01:59;;;;;;;0.90;0.50;;;2.10;36.10;;;;;;5092498;28;20462;-50
2024/01/17 00:04:27;;;;;;;2.15;1.55;;;2.10;35.90;;;;;;5092538;28;20187;-42
2024/01/17 00:06:55;;;;;;;1.35;0.70;;;2.10;35.90;;;;;;5092473;28;20168;-41
2024/01/17 00:09:21;;;;;;;3.40;1.15;;;2.10;36.00;;;;;;5092578;28;20208;-46
2024/01/17 00:11:47;;;;;;;0.80;0.50;;;2.20;35.90;;;;;;5092060;28;20204;-45
2024/01/17 00:14:13;;;;;;;0.95;0.57;;;2.10;35.70;;;;;;5092214;28;20455;-44
2024/01/17 00:16:39;;;;;;;0.80;0.33;;;2.10;35.70;;;;;;5092399;28;20267;-45
2024/01/17 00:19:05;;;;;;;0.85;0.40;;;2.00;35.40;;;;;;5092331;28;20176;-47
2024/01/17 00:21:30;;;;;;;0.90;0.67;;;2.00;35.50;;;;;;5092133;28;20211;-44
2024/01/17 00:23:56;;;;;;;1.13;0.70;;;1.90;35.60;;;;;;5092457;28;20187;-44
2024/01/17 00:26:22;;;;;;;0.80;0.40;;;1.80;35.60;;;;;;5092031;28;20208;-47
2024/01/17 00:28:47;;;;;;;0.80;0.30;;;1.80;35.70;;;;;;5092543;28;20176;-47
2024/01/17 00:31:13;;;;;;;1.07;0.67;;;1.70;35.80;;;;;;5094187;28;20560;-42
2024/01/17 00:33:39;;;;;;;1.07;0.87;;;1.70;35.80;;;;;;5094512;28;20181;-44
2024/01/17 00:36:05;;;;;;;0.97;0.77;;;1.70;35.70;;;;;;5094302;28;20180;-49
2024/01/17 00:38:31;;;;;;;0.80;0.30;;;1.70;35.60;;;;;;5092173;28;20188;-51
2024/01/17 00:40:57;;;;;;;4.73;1.60;;;1.60;35.50;;;;;;5091629;28;20689;-44
2024/01/17 00:43:23;;;;;;;0.80;0.40;;;1.60;35.60;;;;;;5092008;28;20410;-45
2024/01/17 00:45:49;;;;;;;1.00;0.60;;;1.50;35.60;;;;;;5092159;28;20208;-47
2024/01/17 00:48:15;;;;;;;0.80;0.57;;;1.50;35.80;;;;;;5092047;28;20399;-43
2024/01/17 00:50:41;;;;;;;0.80;0.52;;;1.40;35.90;;;;;;5091970;28;20454;-46
2024/01/17 00:53:07;;;;;;;0.70;0.28;;;1.30;35.90;;;;;;5092127;28;20725;-47
2024/01/17 00:55:33;;;;;;;1.00;0.82;;;1.30;36.10;;;;;;5091728;28;20555;-43
2024/01/17 00:57:59;;;;;;;0.80;0.35;;;1.20;35.80;;;;;;5094410;28;20177;-44
2024/01/17 01:00:25;;;;;;;0.80;0.30;;;1.10;35.90;;;;;;5095634;28;20192;-47
2024/01/17 01:02:51;;;;;;;1.00;0.63;;;1.10;36.00;;;;;;5096077;28;20413;-46
2024/01/17 01:05:17;;;;;;;2.20;1.30;;;1.20;36.10;;;;;;5095881;28;20195;-44
2024/01/17 01:07:47;;;;;;;0.80;0.40;;;1.10;36.10;;;;;;5095841;28;20260;-48
2024/01/17 01:10:13;;;;;;;0.77;0.35;;;1.10;36.10;;;;;;5095476;28;20264;-45
2024/01/17 01:12:39;;;;;;;1.25;0.93;;;1.00;36.20;;;;;;5095905;28;20168;-42
2024/01/17 01:15:06;;;;;;;0.80;0.20;;;0.90;36.20;;;;;;5095756;28;20715;-46
2024/01/17 01:17:31;;;;;;;1.27;1.13;;;0.90;36.30;;;;;;5095628;28;20521;-47
2024/01/17 01:19:57;;;;;;;0.80;0.47;;;0.80;36.40;;;;;;5095452;28;20203;-45
2024/01/17 01:22:23;;;;;;;0.80;0.30;;;0.90;36.50;;;;;;5094451;28;20410;-43
2024/01/17 01:24:49;;;;;;;0.73;0.20;;;0.90;36.50;;;;;;5095373;28;20464;-49
2024/01/17 01:27:15;;;;;;;1.30;1.20;;;0.90;36.30;;;;;;5095483;28;20412;-46
2024/01/17 01:29:41;;;;;;;0.98;0.65;;;0.90;36.30;;;;;;5096699;28;20406;-48
2024/01/17 01:32:07;;;;;;;0.90;0.50;;;0.90;36.20;;;;;;5102851;28;20255;-43
2024/01/17 01:34:33;;;;;;;1.00;0.87;;;0.90;36.10;;;;;;5102313;28;20202;-43
2024/01/17 01:37:02;;;;;;;0.88;0.40;;;0.90;36.10;;;;;;5097686;28;20406;-42
2024/01/17 01:39:28;;;;;;;0.70;0.20;;;0.90;36.10;;;;;;5095382;28;20662;-49
2024/01/17 01:41:54;;;;;;;1.00;0.80;;;0.80;35.90;;;;;;5101408;28;20208;-50
2024/01/17 01:44:20;;;;;;;0.90;0.57;;;0.80;35.90;;;;;;5102363;28;20171;-47
2024/01/17 01:46:48;;;;;;;1.87;1.77;;;0.80;35.90;;;;;;5099550;28;20751;-50
2024/01/17 01:49:15;;;;;;;0.90;0.80;;;0.70;35.80;;;;;;5095547;28;20246;-44
2024/01/17 01:51:44;;;;;;;0.85;0.70;;;0.70;36.00;;;;;;5100760;28;20701;-43
2024/01/17 01:54:13;;;;;;;0.80;0.55;;;0.60;35.80;;;;;;5102204;28;20173;-44
2024/01/17 01:56:40;;;;;;;1.02;0.90;;;0.60;35.90;;;;;;5100659;28;20255;-42
2024/01/17 01:59:07;;;;;;;1.00;0.90;;;0.60;36.00;;;;;;5095393;28;20519;-43
2024/01/17 02:01:33;;;;;;;0.80;0.30;;;0.60;35.90;;;;;;5094558;28;20574;-46
2024/01/17 02:04:01;;;;;;;0.90;0.53;;;0.50;35.80;;;;;;5094771;28;20179;-44
2024/01/17 02:06:33;;;;;;;0.80;0.40;;;0.40;35.80;;;;;;5094613;28;20442;-44
2024/01/17 02:09:00;;;;;;;0.75;0.25;;;0.50;35.90;;;;;;5094399;28;20657;-46
2024/01/17 02:11:29;;;;;;;0.80;0.20;;;0.40;35.80;;;;;;5094371;28;20188;-45
2024/01/17 02:13:55;;;;;;;0.85;0.55;;;0.40;35.80;;;;;;5094471;28;20172;-45
2024/01/17 02:16:23;;;;;;;0.77;0.33;;;0.40;35.80;;;;;;5094576;28;20205;-44
2024/01/17 02:18:50;;;;;;;1.00;0.60;;;0.30;35.50;;;;;;5094301;28;20425;-46
2024/01/17 02:21:16;;;;;;;1.05;0.95;;;0.20;35.40;;;;;;5094235;28;20198;-45
2024/01/17 02:23:42;;;;;;;0.80;0.40;;;0.20;35.60;;;;;;5094639;28;20176;-44
2024/01/17 02:26:08;;;;;;;0.70;0.20;;;0.00;35.20;;;;;;5094319;28;20203;-45
2024/01/17 02:28:34;;;;;;;0.80;0.50;;;-0.10;35.60;;;;;;5094343;28;20164;-46
2024/01/17 02:31:00;;;;;;;0.90;0.60;;;-0.10;35.90;;;;;;5094002;28;20192;-47
2024/01/17 02:33:26;;;;;;;0.80;0.40;;;-0.20;35.90;;;;;;5094134;28;20184;-43
2024/01/17 02:35:52;;;;;;;0.80;0.40;;;-0.20;36.00;;;;;;5094244;28;20557;-42
2024/01/17 02:38:18;;;;;;;2.43;2.33;;;-0.10;36.10;;;;;;5094150;28;20172;-46
2024/01/17 02:40:44;;;;;;;0.70;0.20;;;-0.10;35.90;;;;;;5093584;28;20537;-45
2024/01/17 02:43:10;;;;;;;0.80;0.30;;;-0.10;35.90;;;;;;5094113;28;20283;-44
2024/01/17 02:45:36;;;;;;;1.15;1.05;;;-0.10;35.80;;;;;;5093973;28;20457;-46
2024/01/17 02:48:02;;;;;;;0.80;0.43;;;-0.10;35.60;;;;;;5093810;28;20169;-44
2024/01/17 02:50:29;;;;;;;0.70;0.25;;;-0.20;35.60;;;;;;5093799;28;20193;-42
2024/01/17 02:52:55;;;;;;;0.82;0.57;;;-0.20;35.60;;;;;;5093832;28;20638;-47
2024/01/17 02:55:23;;;;;;;16.40;1.65;;;-0.30;35.50;;;;;;5093671;28;20605;-45
2024/01/17 02:57:50;;;;;;;0.80;0.20;;;-0.30;35.80;;;;;;5093912;28;20264;-44
2024/01/17 03:00:17;;;;;;;0.90;0.60;;;-0.30;35.90;;;;;;5093408;28;20196;-44
2024/01/17 03:02:42;;;;;;;0.80;0.40;;;-0.50;35.80;;;;;;5093575;28;20259;-44
2024/01/17 03:05:08;;;;;;;0.80;0.40;;;-0.40;35.90;;;;;;5093633;28;20283;-46
2024/01/17 03:07:34;;;;;;;0.80;0.50;;;-0.40;35.90;;;;;;5093522;28;20179;-47
2024/01/17 03:10:00;;;;;;;0.70;0.37;;;-0.40;35.90;;;;;;5093291;28;20196;-44
2024/01/17 03:12:26;;;;;;;0.80;0.30;;;-0.50;35.50;;;;;;5093619;28;20172;-44
2024/01/17 03:14:51;;;;;;;0.70;0.30;;;-0.50;35.60;;;;;;5093384;28;20810;-46
2024/01/17 03:17:17;;;;;;;1.17;1.07;;;-0.60;35.80;;;;;;5093312;28;20172;-48
2024/01/17 03:19:44;;;;;;;0.80;0.40;;;-0.50;35.90;;;;;;5092550;28;20218;-45
2024/01/17 03:22:10;;;;;;;0.80;0.30;;;-0.50;36.10;;;;;;5093201;28;20221;-45
2024/01/17 03:24:38;;;;;;;0.80;0.40;;;-0.50;35.80;;;;;;5093158;28;20181;-48
2024/01/17 03:27:04;;;;;;;0.70;0.28;;;-0.50;35.70;;;;;;5093206;28;20398;-46
2024/01/17 03:29:30;;;;;;;0.80;0.30;;;-0.50;35.60;;;;;;5093121;28;20576;-44
2024/01/17 03:31:56;;;;;;;0.80;0.27;;;-0.50;35.60;;;;;;5093054;28;20824;-45
2024/01/17 03:34:22;;;;;;;0.70;0.20;;;-0.50;35.80;;;;;;5092993;28;20399;-45
2024/01/17 03:36:48;;;;;;;0.80;0.40;;;-0.50;35.70;;;;;;5092963;28;20206;-48
2024/01/17 03:39:13;;;;;;;2.00;1.80;;;-0.50;35.70;;;;;;5092896;28;20410;-45
2024/01/17 03:41:39;;;;;;;0.80;0.30;;;-0.50;35.80;;;;;;5092546;28;20214;-43
2024/01/17 03:44:06;;;;;;;0.80;0.40;;;-0.50;36.00;;;;;;5092938;28;20260;-47
2024/01/17 03:46:32;;;;;;;0.80;0.73;;;-0.50;36.00;;;;;;5092706;28;21017;-46
2024/01/17 03:48:58;;;;;;;0.80;0.30;;;-0.40;36.00;;;;;;5092966;28;20176;-45
2024/01/17 03:51:23;;;;;;;0.90;0.40;;;-0.40;35.90;;;;;;5092579;28;20562;-45
2024/01/17 03:53:49;;;;;;;0.70;0.20;;;-0.40;35.90;;;;;;5092643;28;20418;-46
2024/01/17 03:56:15;;;;;;;1.00;0.70;;;-0.40;35.80;;;;;;5092814;28;20411;-48
2024/01/17 03:58:44;;;;;;;0.70;0.30;;;-0.40;35.60;;;;;;5092616;28;20187;-44
2024/01/17 04:01:13;;;;;;;0.80;0.30;;;-0.40;35.50;;;;;;5092285;28;20430;-42
2024/01/17 04:03:43;;;;;;;0.90;0.60;;;-0.50;35.30;;;;;;5092557;28;20779;-48
2024/01/17 04:06:09;;;;;;;0.80;0.30;;;-0.50;35.50;;;;;;5092659;28;20230;-44
2024/01/17 04:08:35;;;;;;;0.77;0.33;;;-0.50;35.40;;;;;;5092564;28;20642;-43
2024/01/17 04:11:01;;;;;;;0.70;0.30;;;-0.60;35.60;;;;;;5090858;28;20422;-46
2024/01/17 04:13:26;;;;;;;0.70;0.30;;;-0.60;35.60;;;;;;5092318;28;20827;-45
2024/01/17 04:15:52;;;;;;;0.70;0.30;;;-0.60;35.50;;;;;;5092334;28;20697;-50
2024/01/17 04:18:18;;;;;;;0.73;0.23;;;-0.60;35.40;;;;;;5092523;28;20173;-46
2024/01/17 04:20:44;;;;;;;0.80;0.40;;;-0.70;35.30;;;;;;5092080;28;20188;-44
2024/01/17 04:23:10;;;;;;;0.80;0.40;;;-0.60;35.40;;;;;;5092488;28;20183;-42
2024/01/17 04:25:36;;;;;;;0.70;0.20;;;-0.70;35.30;;;;;;5092300;28;20220;-48
2024/01/17 04:28:06;;;;;;;1.27;1.10;;;-0.70;35.70;;;;;;5093004;28;20654;-47
2024/01/17 04:30:32;;;;;;;0.80;0.47;;;-0.70;36.20;;;;;;5093212;28;20550;-45
2024/01/17 04:32:58;;;;;;;0.70;0.40;;;-0.70;36.30;;;;;;5093863;28;20169;-46
2024/01/17 04:35:23;;;;;;;1.13;0.80;;;-0.70;36.50;;;;;;5092743;28;20179;-48
2024/01/17 04:37:49;;;;;;;0.80;0.30;;;-0.70;36.40;;;;;;5092068;28;20955;-44
2024/01/17 04:40:15;;;;;;;1.10;0.83;;;-0.60;36.70;;;;;;5091704;28;20204;-44
2024/01/17 04:42:41;;;;;;;1.13;0.70;;;-0.60;36.60;;;;;;5092069;28;20262;-46
2024/01/17 04:45:08;;;;;;;0.77;0.30;;;-0.50;36.90;;;;;;5092218;28;20200;-49
2024/01/17 04:47:33;;;;;;;0.70;0.20;;;-0.50;36.90;;;;;;5092044;28;20413;-43
2024/01/17 04:49:59;;;;;;;0.80;0.40;;;-0.40;36.80;;;;;;5092202;28;20188;-44
2024/01/17 04:52:25;;;;;;;1.03;0.90;;;-0.40;36.70;;;;;;5091928;28;20522;-47
2024/01/17 04:54:51;;;;;;;0.80;0.30;;;-0.30;36.60;;;;;;5091911;28;20175;-45
2024/01/17 04:57:16;;;;;;;1.33;1.23;;;-0.30;36.80;;;;;;5091905;28;20405;-44
2024/01/17 04:59:42;;;;;;;0.80;0.40;;;-0.30;36.60;;;;;;5091948;28;20188;-45
2024/01/17 05:02:09;;;;;;;3.93;1.27;;;-0.30;36.40;;;;;;5091898;28;20172;-44
2024/01/17 05:04:35;;;;;;;0.77;0.35;;;-0.40;36.50;;;;;;5091927;28;20402;-42
2024/01/17 05:07:01;;;;;;;0.80;0.40;;;-0.40;36.90;;;;;;5091736;28;20206;-45
2024/01/17 05:09:27;;;;;;;0.70;0.30;;;-0.40;37.10;;;;;;5091875;28;20168;-46
2024/01/17 05:11:55;;;;;;;0.80;0.47;;;-0.40;37.20;;;;;;5091407;28;20276;-43
2024/01/17 05:14:21;;;;;;;0.80;0.40;;;-0.30;37.20;;;;;;5090416;28;20168;-49
2024/01/17 05:16:47;;;;;;;3.17;1.53;;;-0.20;37.00;;;;;;5091811;28;20195;-45
2024/01/17 05:19:12;;;;;;;1.57;1.47;;;-0.20;36.80;;;;;;5091748;28;20177;-43
2024/01/17 05:21:38;;;;;;;0.80;0.40;;;-0.20;36.80;;;;;;5091411;28;20222;-45
2024/01/17 05:24:04;;;;;;;0.80;0.43;;;-0.10;36.90;;;;;;5091730;28;20180;-49
2024/01/17 05:26:30;;;;;;;0.80;0.43;;;-0.10;36.80;;;;;;5091599;28;20554;-45
2024/01/17 05:28:55;;;;;;;0.70;0.20;;;-0.10;36.60;;;;;;5091584;28;20176;-45
2024/01/17 05:31:21;;;;;;;0.70;0.20;;;-0.10;36.50;;;;;;5091333;28;20196;-46
2024/01/17 05:33:47;;;;;;;1.30;1.20;;;-0.10;36.60;;;;;;5091554;28;20180;-44
2024/01/17 05:36:12;;;;;;;1.63;1.53;;;-0.10;36.60;;;;;;5091613;28;20305;-45
2024/01/17 05:38:38;;;;;;;1.97;0.60;;;-0.10;36.70;;;;;;5091495;28;20173;-45
2024/01/17 05:41:04;;;;;;;1.10;0.77;;;-0.10;36.70;;;;;;5091410;28;20208;-44
2024/01/17 05:43:30;;;;;;;2.00;1.57;;;-0.10;36.50;;;;;;5093295;28;20179;-49
2024/01/17 05:45:59;;;;;;;0.80;0.47;;;-0.10;36.40;;;;;;5095051;28;20625;-44
2024/01/17 05:48:25;;;;;;;1.55;1.30;;;-0.10;36.50;;;;;;5095120;28;20196;-43
2024/01/17 05:50:51;;;;;;;1.33;1.08;;;-0.10;36.50;;;;;;5094809;28;20194;-46
2024/01/17 05:53:16;;;;;;;4.50;1.50;;;-0.20;36.50;;;;;;5095110;28;20243;-43
2024/01/17 05:55:42;;;;;;;0.80;0.40;;;-0.20;36.50;;;;;;5097993;28;20489;-43
2024/01/17 05:58:11;;;;;;;1.33;1.10;;;-0.20;36.60;;;;;;5098823;28;20263;-46
2024/01/17 06:00:40;;;;;;;0.70;0.20;;;-0.20;36.50;;;;;;5098925;28;20418;-47
2024/01/17 06:03:06;;;;;;;1.50;1.35;;;-0.20;36.60;;;;;;5095158;28;20204;-45
2024/01/17 06:05:32;;;;;;;2.27;2.17;;;-0.20;36.60;;;;;;5095380;28;20269;-48
2024/01/17 06:07:58;;;;;;;2.50;2.30;;;-0.20;36.30;;;;;;5097620;28;20433;-44
2024/01/17 06:10:25;;;;;;;0.90;0.70;;;-0.20;36.00;;;;;;5098430;28;20215;-48
2024/01/17 06:12:51;;;;;;;1.00;0.82;;;-0.30;35.80;;;;;;5094769;28;20406;-48
2024/01/17 06:15:17;;;;;;;2.70;1.07;;;-0.40;36.10;;;;;;5095218;28;20202;-44
2024/01/17 06:17:43;;;;;;;1.52;1.40;;;-0.40;36.30;;;;;;5098721;28;20413;-43
2024/01/17 06:20:13;;;;;;;7.13;1.50;;;-0.40;36.40;;;;;;5098496;28;20717;-43
2024/01/17 06:22:40;;;;;;;1.30;0.90;;;-0.40;36.50;;;;;;5096470;28;20177;-46
2024/01/17 06:25:06;;;;;;;1.15;1.05;;;-0.50;36.70;;;;;;5094509;28;20253;-47
2024/01/17 06:27:32;;;;;;;0.85;0.55;;;-0.50;36.60;;;;;;5094402;28;20192;-46
2024/01/17 06:29:58;;;;;;;0.70;0.30;;;-0.50;36.30;;;;;;5094113;28;20691;-45
2024/01/17 06:32:24;;;;;;;0.80;0.40;;;-0.50;36.40;;;;;;5092911;28;20416;-46
2024/01/17 06:34:50;;;;;;;1.03;0.93;;;-0.50;36.40;;;;;;5094181;28;20164;-47
2024/01/17 06:37:15;;;;;;;0.80;0.30;;;-0.60;36.40;;;;;;5094304;28;20431;-43
2024/01/17 06:39:42;;;;;;;0.93;0.83;;;-0.50;36.50;;;;;;5093913;28;20192;-49
2024/01/17 06:42:08;;;;;;;1.48;0.90;;;-0.50;36.40;;;;;;5093906;28;20251;-51
2024/01/17 06:44:34;;;;;;;1.63;1.23;;;-0.50;36.30;;;;;;5093926;28;20196;-43
2024/01/17 06:46:59;;;;;;;0.70;0.20;;;-0.50;36.10;;;;;;5093927;28;20446;-43
2024/01/17 06:49:28;;;;;;;0.80;0.50;;;-0.50;36.00;;;;;;5093740;28;20405;-52
2024/01/17 06:51:56;;;;;;;7.88;2.95;;;-0.60;36.00;;;;;;5093497;28;20523;-42
2024/01/17 06:54:22;;;;;;;0.80;0.50;;;-0.60;36.10;;;;;;5092934;28;20638;-45
2024/01/17 06:56:47;;;;;;;0.87;0.60;;;-0.60;36.70;;;;;;5093658;28;20173;-48
2024/01/17 06:59:13;;;;;;;2.47;1.70;;;-0.60;36.00;;;;;;5093785;28;20452;-43
2024/01/17 07:01:40;;;;;;;0.80;0.43;;;-0.60;35.90;;;;;;5093402;28;20426;-46
2024/01/17 07:04:06;;;;;;;4.00;1.15;;;-0.70;35.90;;;;;;5093564;28;20206;-50
2024/01/17 07:06:32;;;;;;;0.70;0.20;;;-0.70;35.60;;;;;;5093417;28;20299;-44
2024/01/17 07:08:59;;;;;;;0.70;0.32;;;-0.80;35.70;;;;;;5093612;28;20173;-44
2024/01/17 07:11:24;;;;;;;1.00;0.63;;;-0.80;35.70;;;;;;5093119;28;20197;-46
2024/01/17 07:13:50;;;;;;;0.80;0.50;;;-0.90;35.70;;;;;;5093441;28;20183;-44
2024/01/17 07:16:16;;;;;;;2.00;1.90;;;-0.90;35.80;;;;;;5093427;28;20399;-42
2024/01/17 07:18:43;;;;;;;0.90;0.70;;;-0.90;35.80;;;;;;5093369;28;20247;-45
2024/01/17 07:21:08;;;;;;;5.30;1.67;;;-0.90;35.80;;;;;;5093043;28;20944;-46
2024/01/17 07:23:36;;;;;;;0.73;0.30;;;-0.90;36.00;;;;;;5093233;28;20188;-48
2024/01/17 07:26:03;;;;;;;2.08;1.15;;;-0.90;36.20;;;;;;5093192;28;20450;-44
2024/01/17 07:28:29;;;;;;;1.13;1.02;;;-0.90;36.30;;;;;;5093298;28;20173;-45
2024/01/17 07:30:55;;;;;;;0.70;0.30;;;-0.80;36.20;;;;;;5092903;28;20603;-48
2024/01/17 07:33:21;;;;;;;0.70;0.30;;;-0.80;35.90;;;;;;5092890;28;20403;-43
2024/01/17 07:35:47;;;;;;;0.80;0.40;;;-0.80;36.00;;;;;;5093041;28;20627;-43
2024/01/17 07:38:13;;;;;;;1.57;0.83;;;-0.80;36.20;;;;;;5093046;28;20212;-47
2024/01/17 07:40:38;;;;;;;1.77;1.30;;;-0.70;36.50;;;;;;5092550;28;21097;-49
2024/01/17 07:43:04;;;;;;;0.80;0.30;;;-0.70;36.60;;;;;;5092939;28;20181;-43
2024/01/17 07:45:30;;;;;;;0.80;0.30;;;-0.60;36.60;;;;;;5092805;28;20699;-46
2024/01/17 07:47:56;;;;;;;0.90;0.77;;;-0.50;36.70;;;;;;5092597;28;20169;-49
2024/01/17 07:50:23;;;;;;;0.80;0.50;;;-0.40;36.70;;;;;;5092519;28;20204;-44
2024/01/17 07:52:49;;;;;;;1.00;0.82;;;-0.20;36.80;;;;;;5092757;28;20176;-46
2024/01/17 07:55:15;;;;;;;1.27;0.57;;;-0.10;36.80;;;;;;5092679;28;20187;-48
2024/01/17 07:57:41;;;;;;;0.77;0.30;;;0.00;36.70;;;;;;5092736;28;20430;-44
2024/01/17 08:00:08;;;;;;;1.50;0.47;;;0.10;36.70;;;;;;5092448;28;20227;-48
2024/01/17 08:02:34;;;;;;;0.70;0.20;;;0.10;36.70;;;;;;5092312;28;20418;-49
2024/01/17 08:05:00;;;;;;;0.80;0.52;;;0.20;36.80;;;;;;5092643;28;20250;-44
2024/01/17 08:07:26;;;;;;;0.90;0.60;;;0.30;36.90;;;;;;5092277;28;20634;-45
2024/01/17 08:09:52;;;;;;;4.20;0.75;;;0.40;36.80;;;;;;5092679;28;20428;-49
2024/01/17 08:12:19;;;;;;;1.00;0.77;;;0.60;36.90;;;;;;5091806;28;20221;-44
2024/01/17 08:14:45;;;;;;;1.05;0.80;;;0.80;37.00;;;;;;5092680;28;20165;-47
2024/01/17 08:17:11;;;;;;;0.90;0.50;;;1.00;37.50;;;;;;5092147;28;20177;-44
2024/01/17 08:19:38;;;;;;;0.77;0.30;;;1.30;38.00;;;;;;5092474;28;20643;-43
2024/01/17 08:22:04;;;;;;;4.93;1.77;;;1.60;37.80;;;;;;5092337;28;20246;-45
2024/01/17 08:24:30;;;;;;;2.35;2.15;;;1.80;37.50;;;;;;5092380;28;20263;-42
2024/01/17 08:26:56;;;;;;;2.75;1.02;;;2.00;37.50;;;;;;5091997;28;20229;-48
2024/01/17 08:29:22;;;;;;;2.05;1.60;;;2.00;37.20;;;;;;5092157;28;20172;-45
2024/01/17 08:31:49;;;;;;;0.80;0.30;;;2.10;37.30;;;;;;5091777;28;20200;-44
2024/01/17 08:34:15;;;;;;;0.85;0.55;;;2.20;37.30;;;;;;5092329;28;20172;-46
2024/01/17 08:36:41;;;;;;;1.03;0.83;;;2.20;37.20;;;;;;5092252;28;20176;-46
2024/01/17 08:39:07;;;;;;;1.58;1.30;;;2.30;37.20;;;;;;5092183;28;20417;-45
2024/01/17 08:41:33;;;;;;;1.00;0.80;;;2.30;37.10;;;;;;5091802;28;20294;-44
2024/01/17 08:44:01;;;;;;;1.73;1.63;;;2.40;37.00;;;;;;5092019;28;20249;-49
2024/01/17 08:46:27;;;;;;;0.70;0.25;;;2.60;36.90;;;;;;5091801;28;20582;-43
2024/01/17 08:48:54;;;;;;;2.67;1.65;;;2.70;36.30;;;;;;5091923;28;20172;-44
2024/01/17 08:51:21;;;;;;;2.67;2.35;;;2.80;36.10;;;;;;5091581;28;20227;-50
2024/01/17 08:53:48;;;;;;;1.40;0.82;;;2.80;36.10;;;;;;5091902;28;20672;-51
2024/01/17 08:56:15;;;;;;;1.38;1.27;;;2.80;36.20;;;;;;5091959;28;20178;-44
2024/01/17 08:58:44;;;;;;;2.42;2.30;;;2.90;36.20;;;;;;5091920;28;20168;-44
2024/01/17 09:01:10;;;;;;;3.92;1.80;;;2.80;35.90;;;;;;5091496;28;20712;-49
2024/01/17 09:03:39;;;;;;;1.07;0.83;;;2.90;35.80;;;;;;5091826;28;20165;-50
2024/01/17 09:06:05;;;;;;;5.32;2.13;;;3.00;35.40;;;;;;5091833;28;20454;-43
2024/01/17 09:08:31;;;;;;;1.67;1.30;;;2.90;35.60;;;;;;5091831;28;20222;-45
2024/01/17 09:10:57;;;;;;;0.80;0.30;;;3.00;35.50;;;;;;5091552;28;20422;-50
2024/01/17 09:13:22;;;;;;;1.00;0.70;;;3.10;35.50;;;;;;5091677;28;20169;-45
2024/01/17 09:15:48;;;;;;;0.80;0.30;;;3.30;35.10;;;;;;5091766;28;20165;-44
2024/01/17 09:18:17;;;;;;;2.53;2.10;;;3.60;35.10;;;;;;5092991;28;20406;-48
2024/01/17 09:20:46;;;;;;;3.50;1.30;;;3.80;34.60;;;;;;5095268;28;20221;-43
2024/01/17 09:23:13;;;;;;;1.15;0.70;;;4.00;34.00;;;;;;5095562;28;20176;-42
2024/01/17 09:25:39;;;;;;;0.80;0.38;;;4.20;33.90;;;;;;5095414;28;20200;-48
2024/01/17 09:28:05;;;;;;;1.97;1.00;;;4.40;33.60;;;;;;5095489;28;20168;-49
2024/01/17 09:30:31;;;;;;;0.90;0.68;;;4.60;33.70;;;;;;5095191;28;20505;-42
2024/01/17 09:32:57;;;;;;;2.88;1.38;;;4.70;33.40;;;;;;5095388;28;20169;-46
2024/01/17 09:35:23;;;;;;;1.17;1.03;;;4.90;32.80;;;;;;5095386;28;20175;-46
2024/01/17 09:37:48;;;;;;;1.20;1.10;;;4.90;32.50;;;;;;5095308;28;20176;-47
2024/01/17 09:40:14;;;;;;;0.90;0.50;;;4.90;31.90;;;;;;5094969;28;20453;-44
2024/01/17 09:42:40;;;;;;;1.53;1.13;;;5.00;31.70;;;;;;5095159;28;20196;-48
2024/01/17 09:45:09;;;;;;;4.45;2.95;;;4.90;31.70;;;;;;5095371;28;20445;-43
2024/01/17 09:47:36;;;;;;;1.52;1.42;;;4.90;31.30;;;;;;5095277;28;20173;-43
2024/01/17 09:50:02;;;;;;;1.55;1.15;;;4.80;31.10;;;;;;5095774;28;20200;-47
2024/01/17 09:52:32;;;;;;;2.50;2.30;;;4.80;31.60;;;;;;5096995;28;20271;-45
2024/01/17 09:55:00;;;;;;;1.50;1.40;;;4.70;31.20;;;;;;5095785;28;20251;-49
2024/01/17 09:57:29;;;;;;;1.90;0.57;;;4.60;31.80;;;;;;5095194;28;20173;-49
2024/01/17 09:59:58;;;;;;;3.88;3.58;;;4.60;31.70;;;;;;5095893;28;20176;-44
2024/01/17 10:02:27;;;;;;;0.93;0.77;;;4.70;32.00;;;;;;5097087;28;20183;-43
2024/01/17 10:04:54;;;;;;;3.63;2.00;;;4.80;32.00;;;;;;5094655;28;20184;-46
2024/01/17 10:07:20;;;;;;;1.00;0.80;;;4.90;32.20;;;;;;5096270;28;20207;-44
2024/01/17 10:09:46;;;;;;;1.80;0.80;;;5.00;32.10;;;;;;5095879;28;20200;-49
2024/01/17 10:12:19;;;;;;;3.67;2.77;;;5.00;32.00;;;;;;5095334;28;20168;-50
2024/01/17 10:14:45;;;;;;;4.70;1.60;;;5.10;31.90;;;;;;5094747;28;20426;-43
2024/01/17 10:17:11;;;;;;;1.02;0.57;;;5.20;31.60;;;;;;5094661;28;20214;-44
2024/01/17 10:19:37;;;;;;;1.27;0.98;;;5.30;31.30;;;;;;5094589;28;20176;-50
2024/01/17 10:22:06;;;;;;;1.10;1.00;;;5.30;30.80;;;;;;5094093;28;20212;-50
2024/01/17 10:24:32;;;;;;;2.35;2.25;;;5.30;31.00;;;;;;5094363;28;20414;-43
2024/01/17 10:27:01;;;;;;;1.60;1.33;;;5.80;31.00;;;;;;5094349;28;20212;-46
2024/01/17 10:29:29;;;;;;;1.67;1.50;;;6.40;29.40;;;;;;5094328;28;20172;-50
2024/01/17 10:31:59;;;;;;;3.65;2.75;;;6.90;29.00;;;;;;5092813;28;20192;-51
2024/01/17 10:34:29;;;;;;;7.70;2.33;;;7.50;27.40;;;;;;5094267;28;20196;-44
2024/01/17 10:36:54;;;;;;;1.77;1.65;;;7.80;27.40;;;;;;5094420;28;20225;-47
2024/01/17 10:39:21;;;;;;;1.70;1.60;;;8.10;27.20;;;;;;5094086;28;20169;-49
2024/01/17 10:41:54;;;;;;;5.10;2.25;;;8.30;26.00;;;;;;5093815;28;20862;-45
2024/01/17 10:44:21;;;;;;;0.90;0.50;;;8.00;24.80;;;;;;5094006;28;20204;-46
2024/01/17 10:46:55;;;;;;;6.50;2.47;;;7.50;26.40;;;;;;5093875;28;20230;-48
2024/01/17 10:49:23;;;;;;;2.97;1.02;;;7.10;26.80;;;;;;5093931;28;20562;-44
2024/01/17 10:52:11;;;;;;;4.75;2.03;;;6.90;27.60;;;;;;5093646;28;20593;-46
2024/01/17 10:54:40;;;;;;;3.70;1.23;;;6.70;28.00;;;;;;5094016;28;20180;-46
2024/01/17 10:57:09;;;;;;;1.70;1.55;;;6.60;27.70;;;;;;5094143;28;20642;-45
2024/01/17 10:59:42;;;;;;;1.25;1.15;;;6.40;28.10;;;;;;5093837;28;20181;-45
2024/01/17 11:02:17;;;;;;;3.05;1.83;;;6.10;28.80;;;;;;5093650;28;20196;-51
2024/01/17 11:04:46;;;;;;;1.90;1.70;;;6.00;29.10;;;;;;5093655;28;20225;-44
2024/01/17 11:07:13;;;;;;;1.58;1.23;;;5.90;29.90;;;;;;5093564;28;20193;-44
2024/01/17 11:09:41;;;;;;;2.60;2.17;;;5.90;29.80;;;;;;5093482;28;20177;-49
2024/01/17 11:12:08;;;;;;;1.75;1.65;;;5.70;29.60;;;;;;5093165;28;20267;-48
2024/01/17 11:14:35;;;;;;;1.17;0.73;;;5.60;29.80;;;;;;5093648;28;20314;-46
2024/01/17 11:17:03;;;;;;;2.22;2.00;;;5.40;29.90;;;;;;5093564;28;20179;-48
2024/01/17 11:19:32;;;;;;;3.35;2.72;;;5.30;30.50;;;;;;5093412;28;20260;-48
2024/01/17 11:22:00;;;;;;;6.57;2.42;;;5.30;30.40;;;;;;5093132;28;20204;-44
2024/01/17 11:24:32;;;;;;;1.05;0.95;;;5.30;30.10;;;;;;5093452;28;20218;-45
2024/01/17 11:27:25;;;;;;;2.65;2.45;;;5.10;30.10;;;;;;5093144;28;20662;-43
2024/01/17 11:30:03;;;;;;;2.03;1.85;;;4.90;30.70;;;;;;5092899;28;20183;-42
2024/01/17 11:32:50;;;;;;;0.80;0.40;;;4.70;30.80;;;;;;5093625;28;20176;-46
2024/01/17 11:35:40;;;;;;;2.10;1.95;;;4.60;31.00;;;;;;5091858;28;20267;-44
2024/01/17 11:38:31;;;;;;;1.80;1.70;;;4.50;31.90;;;;;;5092524;28;20192;-51
2024/01/17 11:41:07;;;;;;;1.52;1.42;;;4.50;31.60;;;;;;5091897;28;20717;-46
2024/01/17 11:43:38;;;;;;;4.90;2.25;;;4.50;31.70;;;;;;5092833;28;20192;-44
2024/01/17 11:46:05;;;;;;;1.02;0.93;;;4.50;31.60;;;;;;5092804;28;20228;-44
2024/01/17 11:48:33;;;;;;;1.02;0.77;;;4.60;31.80;;;;;;5093021;28;20179;-44
2024/01/17 11:51:15;;;;;;;2.20;2.03;;;4.60;31.30;;;;;;5092597;28;20850;-45
2024/01/17 11:53:43;;;;;;;1.10;0.93;;;4.50;31.50;;;;;;5092755;28;20223;-49
2024/01/17 11:56:10;;;;;;;2.38;2.15;;;4.60;31.80;;;;;;5092707;28;20171;-43
2024/01/17 11:58:45;;;;;;;3.33;3.05;;;4.60;31.50;;;;;;5091868;28;20259;-50
2024/01/17 12:01:39;;;;;;;1.02;0.90;;;4.60;31.60;;;;;;5093122;28;20215;-45
2024/01/17 12:04:16;;;;;;;2.80;2.60;;;4.60;31.50;;;;;;5093350;28;20164;-43
2024/01/17 12:06:47;;;;;;;1.10;0.80;;;4.60;31.30;;;;;;5093227;28;20241;-51
2024/01/17 12:09:19;;;;;;;0.90;0.68;;;4.50;31.50;;;;;;5092611;28;20201;-45
2024/01/17 12:11:48;;;;;;;1.80;1.70;;;4.40;31.60;;;;;;5092113;28;20203;-45
2024/01/17 12:14:15;;;;;;;0.90;0.70;;;4.50;32.10;;;;;;5092457;28;20176;-49
2024/01/17 12:16:41;;;;;;;1.38;1.25;;;4.50;31.80;;;;;;5092349;28;20180;-46
2024/01/17 12:19:10;;;;;;;0.90;0.65;;;4.50;31.50;;;;;;5092650;28;20172;-43
2024/01/17 12:21:36;;;;;;;2.20;2.10;;;4.40;31.80;;;;;;5092204;28;20196;-44
2024/01/17 12:24:02;;;;;;;0.90;0.80;;;4.50;31.70;;;;;;5092451;28;20208;-48
2024/01/17 12:26:28;;;;;;;1.37;0.93;;;4.50;31.20;;;;;;5092353;28;20234;-44
2024/01/17 12:29:10;;;;;;;1.13;1.03;;;4.50;31.50;;;;;;5092214;28;20414;-46
2024/01/17 12:31:37;;;;;;;1.77;1.25;;;4.40;31.50;;;;;;5091783;28;20423;-45
2024/01/17 12:34:04;;;;;;;2.60;2.03;;;4.50;31.80;;;;;;5092304;28;20183;-44
2024/01/17 12:36:34;;;;;;;1.90;1.05;;;4.50;31.60;;;;;;5092263;28;20225;-51
2024/01/17 12:39:08;;;;;;;0.90;0.63;;;4.50;31.10;;;;;;5092269;28;20589;-45
2024/01/17 12:41:36;;;;;;;3.13;1.30;;;4.40;31.70;;;;;;5091699;28;20210;-48
2024/01/17 12:44:04;;;;;;;1.08;0.85;;;4.50;31.30;;;;;;5091931;28;20953;-43
2024/01/17 12:46:30;;;;;;;1.42;0.68;;;4.60;31.30;;;;;;5092168;28;20199;-43
2024/01/17 12:48:58;;;;;;;2.05;1.33;;;4.60;31.00;;;;;;5091978;28;20222;-48
2024/01/17 12:51:25;;;;;;;1.60;1.33;;;4.70;31.20;;;;;;5091755;28;20195;-50
2024/01/17 12:53:53;;;;;;;2.03;1.92;;;4.80;30.80;;;;;;5094372;28;20172;-45